sensor_id;sensor_type;location;lat;lon;timestamp;pressure;altitude;pressure_sealevel;temperature;humidity
50852;BME280;43953;45.508;-122.806;2022-08-03T00:00:12;100680.94;;;39.61;20.52
50852;BME280;43953;45.508;-122.806;2022-08-03T00:00:45;100680.16;;;39.56;20.06
50852;BME280;43953;45.508;-122.806;2022-08-03T00:01:17;100687.47;;;39.43;20.60
50852;BME280;43953;45.508;-122.806;2022-08-03T00:01:49;100685.84;;;39.24;21.02
50852;BME280;43953;45.508;-122.806;2022-08-03T00:02:21;100683.09;;;39.03;21.23
50852;BME280;43953;45.508;-122.806;2022-08-03T00:02:52;100678.28;;;38.85;21.37
50852;BME280;43953;45.508;-122.806;2022-08-03T00:03:24;100683.47;;;38.69;20.82
50852;BME280;43953;45.508;-122.806;2022-08-03T00:03:56;100689.94;;;38.55;21.60
50852;BME280;43953;45.508;-122.806;2022-08-03T00:04:28;100677.88;;;38.40;21.51
50852;BME280;43953;45.508;-122.806;2022-08-03T00:04:59;100683.44;;;38.30;21.83
50852;BME280;43953;45.508;-122.806;2022-08-03T00:05:31;100685.03;;;38.16;21.54
50852;BME280;43953;45.508;-122.806;2022-08-03T00:06:03;100681.41;;;38.05;21.83
50852;BME280;43953;45.508;-122.806;2022-08-03T00:06:35;100682.56;;;37.93;22.14
50852;BME280;43953;45.508;-122.806;2022-08-03T00:07:07;100682.50;;;37.83;22.01
50852;BME280;43953;45.508;-122.806;2022-08-03T00:07:39;100670.44;;;37.75;22.49
50852;BME280;43953;45.508;-122.806;2022-08-03T00:08:12;100677.66;;;37.69;22.21
50852;BME280;43953;45.508;-122.806;2022-08-03T00:08:43;100677.59;;;37.62;22.60
50852;BME280;43953;45.508;-122.806;2022-08-03T00:09:15;100686.00;;;37.54;22.40
50852;BME280;43953;45.508;-122.806;2022-08-03T00:09:47;100685.56;;;37.49;22.46
50852;BME280;43953;45.508;-122.806;2022-08-03T00:10:19;100679.50;;;37.43;22.80
50852;BME280;43953;45.508;-122.806;2022-08-03T00:10:50;100683.09;;;37.37;22.83
50852;BME280;43953;45.508;-122.806;2022-08-03T00:11:22;100683.44;;;37.31;22.94
50852;BME280;43953;45.508;-122.806;2022-08-03T00:11:54;100679.78;;;37.24;23.08
50852;BME280;43953;45.508;-122.806;2022-08-03T00:12:26;100678.97;;;37.20;23.16
50852;BME280;43953;45.508;-122.806;2022-08-03T00:12:57;100673.34;;;37.16;23.06
50852;BME280;43953;45.508;-122.806;2022-08-03T00:13:29;100681.31;;;37.10;23.22
50852;BME280;43953;45.508;-122.806;2022-08-03T00:14:02;100679.66;;;37.06;23.47
50852;BME280;43953;45.508;-122.806;2022-08-03T00:14:34;100678.84;;;37.02;23.32
50852;BME280;43953;45.508;-122.806;2022-08-03T00:15:06;100677.19;;;36.97;23.21
50852;BME280;43953;45.508;-122.806;2022-08-03T00:15:42;100674.75;;;36.92;23.25
50852;BME280;43953;45.508;-122.806;2022-08-03T00:16:14;100675.94;;;36.91;23.32
50852;BME280;43953;45.508;-122.806;2022-08-03T00:16:46;100673.91;;;36.88;23.48
50852;BME280;43953;45.508;-122.806;2022-08-03T00:17:19;100674.31;;;36.86;23.42
50852;BME280;43953;45.508;-122.806;2022-08-03T00:17:52;100673.47;;;36.82;23.31
50852;BME280;43953;45.508;-122.806;2022-08-03T00:18:24;100667.47;;;36.80;23.50
50852;BME280;43953;45.508;-122.806;2022-08-03T00:18:56;100674.22;;;36.76;23.52
50852;BME280;43953;45.508;-122.806;2022-08-03T00:19:28;100671.41;;;36.76;23.65
50852;BME280;43953;45.508;-122.806;2022-08-03T00:19:59;100672.19;;;36.73;23.79
50852;BME280;43953;45.508;-122.806;2022-08-03T00:20:31;100663.34;;;36.71;23.92
50852;BME280;43953;45.508;-122.806;2022-08-03T00:21:04;100665.75;;;36.69;23.73
50852;BME280;43953;45.508;-122.806;2022-08-03T00:21:35;100667.38;;;36.70;23.91
50852;BME280;43953;45.508;-122.806;2022-08-03T00:22:07;100662.56;;;36.70;23.69
50852;BME280;43953;45.508;-122.806;2022-08-03T00:22:40;100665.75;;;36.69;23.79
50852;BME280;43953;45.508;-122.806;2022-08-03T00:23:12;100667.38;;;36.70;23.38
50852;BME280;43953;45.508;-122.806;2022-08-03T00:23:43;100668.97;;;36.71;23.46
50852;BME280;43953;45.508;-122.806;2022-08-03T00:24:15;100661.75;;;36.70;23.71
50852;BME280;43953;45.508;-122.806;2022-08-03T00:24:47;100663.34;;;36.67;23.65
50852;BME280;43953;45.508;-122.806;2022-08-03T00:25:19;100669.72;;;36.64;23.57
50852;BME280;43953;45.508;-122.806;2022-08-03T00:25:50;100661.28;;;36.60;23.67
50852;BME280;43953;45.508;-122.806;2022-08-03T00:26:22;100665.63;;;36.54;23.48
50852;BME280;43953;45.508;-122.806;2022-08-03T00:26:54;100664.75;;;36.50;23.84
50852;BME280;43953;45.508;-122.806;2022-08-03T00:27:27;100671.91;;;36.44;23.97
50852;BME280;43953;45.508;-122.806;2022-08-03T00:28:01;100664.69;;;36.39;23.88
50852;BME280;43953;45.508;-122.806;2022-08-03T00:28:33;100652.59;;;36.35;23.81
50852;BME280;43953;45.508;-122.806;2022-08-03T00:29:04;100660.63;;;36.33;23.91
50852;BME280;43953;45.508;-122.806;2022-08-03T00:29:36;100655.78;;;36.30;23.69
50852;BME280;43953;45.508;-122.806;2022-08-03T00:30:08;100655.75;;;36.27;24.04
50852;BME280;43953;45.508;-122.806;2022-08-03T00:30:40;100653.31;;;36.25;24.32
50852;BME280;43953;45.508;-122.806;2022-08-03T00:31:12;100653.31;;;36.21;24.39
50852;BME280;43953;45.508;-122.806;2022-08-03T00:31:43;100656.44;;;36.16;24.36
50852;BME280;43953;45.508;-122.806;2022-08-03T00:32:15;100657.22;;;36.13;24.37
50852;BME280;43953;45.508;-122.806;2022-08-03T00:32:47;100643.53;;;36.08;24.37
50852;BME280;43953;45.508;-122.806;2022-08-03T00:33:18;100657.97;;;36.07;24.57
50852;BME280;43953;45.508;-122.806;2022-08-03T00:33:50;100649.47;;;36.03;24.27
50852;BME280;43953;45.508;-122.806;2022-08-03T00:34:22;100651.81;;;35.97;24.56
50852;BME280;43953;45.508;-122.806;2022-08-03T00:34:54;100653.75;;;35.93;24.71
50852;BME280;43953;45.508;-122.806;2022-08-03T00:35:26;100654.16;;;35.92;24.80
50852;BME280;43953;45.508;-122.806;2022-08-03T00:35:58;100656.09;;;35.88;24.91
50852;BME280;43953;45.508;-122.806;2022-08-03T00:36:29;100652.91;;;35.86;24.86
50852;BME280;43953;45.508;-122.806;2022-08-03T00:37:01;100649.66;;;35.84;24.64
50852;BME280;43953;45.508;-122.806;2022-08-03T00:37:33;100655.22;;;35.80;24.56
50852;BME280;43953;45.508;-122.806;2022-08-03T00:38:05;100651.19;;;35.77;24.98
50852;BME280;43953;45.508;-122.806;2022-08-03T00:38:37;100649.59;;;35.76;24.65
50852;BME280;43953;45.508;-122.806;2022-08-03T00:39:08;100643.13;;;35.72;24.77
50852;BME280;43953;45.508;-122.806;2022-08-03T00:39:40;100651.53;;;35.72;24.85
50852;BME280;43953;45.508;-122.806;2022-08-03T00:40:15;100646.69;;;35.69;25.06
50852;BME280;43953;45.508;-122.806;2022-08-03T00:40:46;100651.84;;;35.67;24.85
50852;BME280;43953;45.508;-122.806;2022-08-03T00:41:18;100651.44;;;35.65;24.95
50852;BME280;43953;45.508;-122.806;2022-08-03T00:41:50;100646.63;;;35.62;25.02
50852;BME280;43953;45.508;-122.806;2022-08-03T00:42:21;100650.59;;;35.61;25.08
50852;BME280;43953;45.508;-122.806;2022-08-03T00:43:02;100647.38;;;35.59;24.85
50852;BME280;43953;45.508;-122.806;2022-08-03T00:43:34;100636.03;;;35.52;24.96
50852;BME280;43953;45.508;-122.806;2022-08-03T00:44:05;100639.28;;;35.54;25.21
50852;BME280;43953;45.508;-122.806;2022-08-03T00:44:44;100635.22;;;35.48;25.25
50852;BME280;43953;45.508;-122.806;2022-08-03T00:45:17;100649.63;;;35.50;25.15
50852;BME280;43953;45.508;-122.806;2022-08-03T00:45:49;100647.22;;;35.48;25.17
50852;BME280;43953;45.508;-122.806;2022-08-03T00:46:21;100645.97;;;35.46;25.43
50852;BME280;43953;45.508;-122.806;2022-08-03T00:46:52;100644.38;;;35.45;25.38
50852;BME280;43953;45.508;-122.806;2022-08-03T00:47:24;100645.13;;;35.42;25.58
50852;BME280;43953;45.508;-122.806;2022-08-03T00:47:56;100643.50;;;35.41;25.38
50852;BME280;43953;45.508;-122.806;2022-08-03T00:48:28;100649.84;;;35.38;25.52
50852;BME280;43953;45.508;-122.806;2022-08-03T00:49:00;100642.66;;;35.37;25.34
50852;BME280;43953;45.508;-122.806;2022-08-03T00:49:32;100650.25;;;35.36;25.78
50852;BME280;43953;45.508;-122.806;2022-08-03T00:50:05;100646.22;;;35.33;25.84
50852;BME280;43953;45.508;-122.806;2022-08-03T00:50:42;100646.53;;;35.28;25.36
50852;BME280;43953;45.508;-122.806;2022-08-03T00:51:14;100647.78;;;35.31;25.78
50852;BME280;43953;45.508;-122.806;2022-08-03T00:51:46;100646.16;;;35.30;25.43
50852;BME280;43953;45.508;-122.806;2022-08-03T00:52:18;100637.72;;;35.26;25.53
50852;BME280;43953;45.508;-122.806;2022-08-03T00:52:55;100640.09;;;35.24;25.69
50852;BME280;43953;45.508;-122.806;2022-08-03T00:53:27;100648.09;;;35.26;25.58
50852;BME280;43953;45.508;-122.806;2022-08-03T00:53:59;100652.09;;;35.25;25.32
50852;BME280;43953;45.508;-122.806;2022-08-03T00:54:32;100644.09;;;35.23;25.73
50852;BME280;43953;45.508;-122.806;2022-08-03T00:55:04;100643.66;;;35.21;25.63
50852;BME280;43953;45.508;-122.806;2022-08-03T00:55:36;100637.56;;;35.16;25.72
50852;BME280;43953;45.508;-122.806;2022-08-03T00:56:08;100650.44;;;35.20;26.14
50852;BME280;43953;45.508;-122.806;2022-08-03T00:56:43;100641.97;;;35.17;25.99
50852;BME280;43953;45.508;-122.806;2022-08-03T00:57:15;100640.78;;;35.14;25.83
50852;BME280;43953;45.508;-122.806;2022-08-03T00:57:47;100642.72;;;35.14;25.47
50852;BME280;43953;45.508;-122.806;2022-08-03T00:58:19;100645.13;;;35.12;25.79
50852;BME280;43953;45.508;-122.806;2022-08-03T00:58:51;100644.69;;;35.09;25.79
50852;BME280;43953;45.508;-122.806;2022-08-03T00:59:29;100641.44;;;35.07;25.96
50852;BME280;43953;45.508;-122.806;2022-08-03T01:00:01;100645.00;;;35.04;26.02
50852;BME280;43953;45.508;-122.806;2022-08-03T01:00:35;100639.78;;;35.03;26.17
50852;BME280;43953;45.508;-122.806;2022-08-03T01:01:09;100643.72;;;35.02;25.86
50852;BME280;43953;45.508;-122.806;2022-08-03T01:01:42;100647.72;;;35.01;25.87
50852;BME280;43953;45.508;-122.806;2022-08-03T01:02:14;100645.69;;;34.98;25.73
50852;BME280;43953;45.508;-122.806;2022-08-03T01:02:46;100639.28;;;34.97;26.23
50852;BME280;43953;45.508;-122.806;2022-08-03T01:03:17;100641.66;;;34.95;25.86
50852;BME280;43953;45.508;-122.806;2022-08-03T01:03:49;100639.25;;;34.94;25.83
50852;BME280;43953;45.508;-122.806;2022-08-03T01:04:21;100641.19;;;34.93;25.93
50852;BME280;43953;45.508;-122.806;2022-08-03T01:04:53;100628.38;;;34.88;25.94
50852;BME280;43953;45.508;-122.806;2022-08-03T01:05:25;100628.72;;;34.87;25.78
50852;BME280;43953;45.508;-122.806;2022-08-03T01:06:10;100638.66;;;34.84;26.28
50852;BME280;43953;45.508;-122.806;2022-08-03T01:06:54;100641.06;;;34.82;25.88
50852;BME280;43953;45.508;-122.806;2022-08-03T01:09:45;100631.69;;;34.71;26.03
50852;BME280;43953;45.508;-122.806;2022-08-03T01:10:41;100633.69;;;34.71;26.03
50852;BME280;43953;45.508;-122.806;2022-08-03T01:14:01;100630.34;;;34.61;26.41
50852;BME280;43953;45.508;-122.806;2022-08-03T01:15:07;100641.09;;;34.59;26.19
50852;BME280;43953;45.508;-122.806;2022-08-03T01:16:41;100634.53;;;34.52;26.59
50852;BME280;43953;45.508;-122.806;2022-08-03T01:20:26;100636.78;;;34.42;26.98
50852;BME280;43953;45.508;-122.806;2022-08-03T01:21:08;100622.75;;;34.39;26.49
50852;BME280;43953;45.508;-122.806;2022-08-03T01:21:58;100633.91;;;34.39;27.07
50852;BME280;43953;45.508;-122.806;2022-08-03T01:22:59;100623.44;;;34.32;26.89
50852;BME280;43953;45.508;-122.806;2022-08-03T01:26:27;100624.47;;;34.24;26.92
50852;BME280;43953;45.508;-122.806;2022-08-03T01:27:13;100622.06;;;34.23;27.06
50852;BME280;43953;45.508;-122.806;2022-08-03T01:27:58;100615.25;;;34.20;27.53
50852;BME280;43953;45.508;-122.806;2022-08-03T01:28:47;100619.94;;;34.16;27.12
50852;BME280;43953;45.508;-122.806;2022-08-03T01:30:26;100612.25;;;34.09;27.40
50852;BME280;43953;45.508;-122.806;2022-08-03T01:31:04;100615.84;;;34.10;27.14
50852;BME280;43953;45.508;-122.806;2022-08-03T01:31:43;100617.78;;;34.06;27.37
50852;BME280;43953;45.508;-122.806;2022-08-03T01:32:27;100609.66;;;34.01;27.24
50852;BME280;43953;45.508;-122.806;2022-08-03T01:33:11;100616.84;;;34.02;27.72
50852;BME280;43953;45.508;-122.806;2022-08-03T01:33:50;100614.81;;;33.98;27.29
50852;BME280;43953;45.508;-122.806;2022-08-03T01:34:27;100617.53;;;33.95;27.68
50852;BME280;43953;45.508;-122.806;2022-08-03T01:35:09;100611.88;;;33.91;27.54
50852;BME280;43953;45.508;-122.806;2022-08-03T01:35:49;100609.03;;;33.88;27.68
50852;BME280;43953;45.508;-122.806;2022-08-03T01:36:32;100620.56;;;33.86;27.71
50852;BME280;43953;45.508;-122.806;2022-08-03T01:37:06;100620.16;;;33.84;27.94
50852;BME280;43953;45.508;-122.806;2022-08-03T01:38:04;100618.44;;;33.80;27.92
50852;BME280;43953;45.508;-122.806;2022-08-03T01:38:52;100621.63;;;33.78;27.70
50852;BME280;43953;45.508;-122.806;2022-08-03T01:39:25;100620.00;;;33.77;27.76
50852;BME280;43953;45.508;-122.806;2022-08-03T01:40:01;100629.56;;;33.76;27.87
50852;BME280;43953;45.508;-122.806;2022-08-03T01:40:35;100617.94;;;33.74;28.21
50852;BME280;43953;45.508;-122.806;2022-08-03T01:41:14;100619.13;;;33.73;28.25
50852;BME280;43953;45.508;-122.806;2022-08-03T01:41:52;100619.84;;;33.70;27.77
50852;BME280;43953;45.508;-122.806;2022-08-03T01:42:30;100611.31;;;33.63;28.39
50852;BME280;43953;45.508;-122.806;2022-08-03T01:43:05;100614.13;;;33.63;28.01
50852;BME280;43953;45.508;-122.806;2022-08-03T01:43:41;100615.75;;;33.64;28.45
50852;BME280;43953;45.508;-122.806;2022-08-03T01:44:16;100614.13;;;33.63;28.26
50852;BME280;43953;45.508;-122.806;2022-08-03T01:44:49;100615.31;;;33.62;28.40
50852;BME280;43953;45.508;-122.806;2022-08-03T01:45:24;100623.22;;;33.60;28.22
50852;BME280;43953;45.508;-122.806;2022-08-03T01:45:57;100617.22;;;33.58;28.15
50852;BME280;43953;45.508;-122.806;2022-08-03T01:46:30;100619.56;;;33.56;28.41
50852;BME280;43953;45.508;-122.806;2022-08-03T01:47:03;100617.97;;;33.55;28.40
50852;BME280;43953;45.508;-122.806;2022-08-03T01:47:37;100620.31;;;33.52;28.56
50852;BME280;43953;45.508;-122.806;2022-08-03T01:48:11;100610.31;;;33.51;28.84
50852;BME280;43953;45.508;-122.806;2022-08-03T01:48:47;100611.03;;;33.48;28.59
50852;BME280;43953;45.508;-122.806;2022-08-03T01:49:19;100620.56;;;33.47;28.82
50852;BME280;43953;45.508;-122.806;2022-08-03T01:49:52;100611.72;;;33.45;28.92
50852;BME280;43953;45.508;-122.806;2022-08-03T01:50:28;100617.69;;;33.44;28.87
50852;BME280;43953;45.508;-122.806;2022-08-03T01:51:00;100620.84;;;33.42;28.50
50852;BME280;43953;45.508;-122.806;2022-08-03T01:51:32;100606.41;;;33.37;28.45
50852;BME280;43953;45.508;-122.806;2022-08-03T01:52:05;100610.41;;;33.39;28.56
50852;BME280;43953;45.508;-122.806;2022-08-03T01:52:39;100615.56;;;33.37;28.99
50852;BME280;43953;45.508;-122.806;2022-08-03T01:53:13;100607.56;;;33.36;29.04
50852;BME280;43953;45.508;-122.806;2022-08-03T01:53:48;100607.09;;;33.34;28.72
50852;BME280;43953;45.508;-122.806;2022-08-03T01:54:22;100611.88;;;33.33;28.75
50852;BME280;43953;45.508;-122.806;2022-08-03T01:54:56;100614.25;;;33.31;28.75
50852;BME280;43953;45.508;-122.806;2022-08-03T01:55:30;100612.63;;;33.30;28.80
50852;BME280;43953;45.508;-122.806;2022-08-03T01:56:05;100608.94;;;33.26;28.84
50852;BME280;43953;45.508;-122.806;2022-08-03T01:56:38;100618.13;;;33.26;29.21
50852;BME280;43953;45.508;-122.806;2022-08-03T01:57:11;100610.13;;;33.25;29.00
50852;BME280;43953;45.508;-122.806;2022-08-03T01:57:44;100618.50;;;33.25;29.24
50852;BME280;43953;45.508;-122.806;2022-08-03T01:58:19;100612.47;;;33.23;29.25
50852;BME280;43953;45.508;-122.806;2022-08-03T01:58:52;100613.66;;;33.22;29.39
50852;BME280;43953;45.508;-122.806;2022-08-03T01:59:25;100608.44;;;33.20;28.96
50852;BME280;43953;45.508;-122.806;2022-08-03T01:59:59;100611.56;;;33.19;28.96
50852;BME280;43953;45.508;-122.806;2022-08-03T02:00:33;100616.00;;;33.20;29.48
50852;BME280;43953;45.508;-122.806;2022-08-03T02:01:08;100605.56;;;33.17;29.44
50852;BME280;43953;45.508;-122.806;2022-08-03T02:01:41;100612.28;;;33.16;29.26
50852;BME280;43953;45.508;-122.806;2022-08-03T02:02:15;100614.66;;;33.14;29.10
50852;BME280;43953;45.508;-122.806;2022-08-03T02:02:48;100603.84;;;33.12;29.58
50852;BME280;43953;45.508;-122.806;2022-08-03T02:03:22;100611.41;;;33.12;29.42
50852;BME280;43953;45.508;-122.806;2022-08-03T02:03:57;100601.81;;;33.09;29.66
50852;BME280;43953;45.508;-122.806;2022-08-03T02:04:30;100606.56;;;33.08;29.66
50852;BME280;43953;45.508;-122.806;2022-08-03T02:05:05;100609.75;;;33.07;29.53
50852;BME280;43953;45.508;-122.806;2022-08-03T02:05:39;100605.69;;;33.04;29.46
50852;BME280;43953;45.508;-122.806;2022-08-03T02:06:12;100615.66;;;33.05;29.76
50852;BME280;43953;45.508;-122.806;2022-08-03T02:06:45;100609.63;;;33.03;29.78
50852;BME280;43953;45.508;-122.806;2022-08-03T02:07:18;100608.03;;;33.02;29.45
50852;BME280;43953;45.508;-122.806;2022-08-03T02:07:51;100610.38;;;33.00;29.46
50852;BME280;43953;45.508;-122.806;2022-08-03T02:08:24;100605.16;;;32.99;29.60
50852;BME280;43953;45.508;-122.806;2022-08-03T02:08:58;100601.09;;;32.96;29.37
50852;BME280;43953;45.508;-122.806;2022-08-03T02:09:32;100603.88;;;32.96;29.84
50852;BME280;43953;45.508;-122.806;2022-08-03T02:10:05;100604.97;;;32.92;29.85
50852;BME280;43953;45.508;-122.806;2022-08-03T02:10:40;100607.03;;;32.95;29.86
50852;BME280;43953;45.508;-122.806;2022-08-03T02:11:14;100603.44;;;32.94;29.95
50852;BME280;43953;45.508;-122.806;2022-08-03T02:11:47;100601.03;;;32.93;29.71
50852;BME280;43953;45.508;-122.806;2022-08-03T02:12:23;100599.38;;;32.92;29.66
50852;BME280;43953;45.508;-122.806;2022-08-03T02:12:57;100600.56;;;32.91;29.63
50852;BME280;43953;45.508;-122.806;2022-08-03T02:13:32;100595.63;;;32.84;30.08
50852;BME280;43953;45.508;-122.806;2022-08-03T02:14:05;100593.72;;;32.88;29.91
50852;BME280;43953;45.508;-122.806;2022-08-03T02:14:38;100592.94;;;32.88;29.74
50852;BME280;43953;45.508;-122.806;2022-08-03T02:15:15;100595.19;;;32.82;29.93
50852;BME280;43953;45.508;-122.806;2022-08-03T02:15:47;100602.03;;;32.84;29.96
50852;BME280;43953;45.508;-122.806;2022-08-03T02:16:21;100599.59;;;32.83;30.12
50852;BME280;43953;45.508;-122.806;2022-08-03T02:16:54;100598.78;;;32.82;30.36
50852;BME280;43953;45.508;-122.806;2022-08-03T02:17:27;100603.56;;;32.82;30.05
50852;BME280;43953;45.508;-122.806;2022-08-03T02:18:01;100601.94;;;32.81;30.19
50852;BME280;43953;45.508;-122.806;2022-08-03T02:18:36;100600.31;;;32.80;30.38
50852;BME280;43953;45.508;-122.806;2022-08-03T02:19:10;100601.50;;;32.79;30.18
50852;BME280;43953;45.508;-122.806;2022-08-03T02:19:43;100604.28;;;32.79;30.55
50852;BME280;43953;45.508;-122.806;2022-08-03T02:20:15;100596.25;;;32.77;30.42
50852;BME280;43953;45.508;-122.806;2022-08-03T02:20:49;100591.41;;;32.74;30.47
50852;BME280;43953;45.508;-122.806;2022-08-03T02:21:22;100593.03;;;32.75;30.35
50852;BME280;43953;45.508;-122.806;2022-08-03T02:21:53;100596.19;;;32.74;30.31
50852;BME280;43953;45.508;-122.806;2022-08-03T02:22:26;100593.78;;;32.72;30.34
50852;BME280;43953;45.508;-122.806;2022-08-03T02:22:59;100600.50;;;32.71;30.30
50852;BME280;43953;45.508;-122.806;2022-08-03T02:23:31;100597.72;;;32.71;30.57
50852;BME280;43953;45.508;-122.806;2022-08-03T02:24:04;100599.28;;;32.69;30.50
50852;BME280;43953;45.508;-122.806;2022-08-03T02:24:37;100592.06;;;32.68;30.52
50852;BME280;43953;45.508;-122.806;2022-08-03T02:25:10;100594.84;;;32.68;30.73
50852;BME280;43953;45.508;-122.806;2022-08-03T02:25:45;100595.56;;;32.65;30.58
50852;BME280;43953;45.508;-122.806;2022-08-03T02:26:20;100598.34;;;32.65;30.24
50852;BME280;43953;45.508;-122.806;2022-08-03T02:26:54;100595.13;;;32.62;30.60
50852;BME280;43953;45.508;-122.806;2022-08-03T02:27:28;100596.28;;;32.61;30.63
50852;BME280;43953;45.508;-122.806;2022-08-03T02:28:07;100597.47;;;32.60;30.77
50852;BME280;43953;45.508;-122.806;2022-08-03T02:28:40;100593.88;;;32.60;30.44
50852;BME280;43953;45.508;-122.806;2022-08-03T02:29:19;100592.25;;;32.59;30.77
50852;BME280;43953;45.508;-122.806;2022-08-03T02:29:55;100594.22;;;32.58;30.91
50852;BME280;43953;45.508;-122.806;2022-08-03T02:30:33;100591.81;;;32.57;30.79
50852;BME280;43953;45.508;-122.806;2022-08-03T02:31:24;100588.94;;;32.53;30.66
50852;BME280;43953;45.508;-122.806;2022-08-03T02:31:59;100592.53;;;32.54;30.81
50852;BME280;43953;45.508;-122.806;2022-08-03T02:32:36;100590.91;;;32.53;30.75
50852;BME280;43953;45.508;-122.806;2022-08-03T02:33:13;100593.69;;;32.53;31.20
50852;BME280;43953;45.508;-122.806;2022-08-03T02:33:53;100592.44;;;32.50;30.87
50852;BME280;43953;45.508;-122.806;2022-08-03T02:34:28;100593.25;;;32.51;31.08
50852;BME280;43953;45.508;-122.806;2022-08-03T02:35:03;100603.59;;;32.50;31.00
50852;BME280;43953;45.508;-122.806;2022-08-03T02:35:36;100600.38;;;32.48;30.85
50852;BME280;43953;45.508;-122.806;2022-08-03T02:36:10;100600.38;;;32.48;30.88
50852;BME280;43953;45.508;-122.806;2022-08-03T02:36:48;100593.84;;;32.44;31.08
50852;BME280;43953;45.508;-122.806;2022-08-03T02:37:25;100583.53;;;32.45;31.26
50852;BME280;43953;45.508;-122.806;2022-08-03T02:38:01;100593.84;;;32.44;30.90
50852;BME280;43953;45.508;-122.806;2022-08-03T02:38:35;100598.16;;;32.41;30.97
50852;BME280;43953;45.508;-122.806;2022-08-03T02:39:10;100592.97;;;32.40;30.79
50852;BME280;43953;45.508;-122.806;2022-08-03T02:39:44;100596.94;;;32.39;30.73
50852;BME280;43953;45.508;-122.806;2022-08-03T02:40:19;100594.50;;;32.37;31.18
50852;BME280;43953;45.508;-122.806;2022-08-03T02:40:54;100596.00;;;32.35;30.98
50852;BME280;43953;45.508;-122.806;2022-08-03T02:41:53;100595.56;;;32.33;30.90
50852;BME280;43953;45.508;-122.806;2022-08-03T02:42:26;100593.50;;;32.30;31.44
50852;BME280;43953;45.508;-122.806;2022-08-03T02:43:02;100604.63;;;32.30;31.20
50852;BME280;43953;45.508;-122.806;2022-08-03T02:43:36;100593.41;;;32.26;31.42
50852;BME280;43953;45.508;-122.806;2022-08-03T02:44:10;100599.78;;;32.27;30.89
50852;BME280;43953;45.508;-122.806;2022-08-03T02:44:47;100596.56;;;32.25;31.35
50852;BME280;43953;45.508;-122.806;2022-08-03T02:45:23;100598.88;;;32.23;31.16
50852;BME280;43953;45.508;-122.806;2022-08-03T02:45:55;100590.88;;;32.21;31.02
50852;BME280;43953;45.508;-122.806;2022-08-03T02:46:35;100596.38;;;32.17;31.46
50852;BME280;43953;45.508;-122.806;2022-08-03T02:47:09;100595.09;;;32.15;31.40
50852;BME280;43953;45.508;-122.806;2022-08-03T02:47:44;100593.88;;;32.12;31.40
50852;BME280;43953;45.508;-122.806;2022-08-03T02:48:19;100592.69;;;32.13;31.47
50852;BME280;43953;45.508;-122.806;2022-08-03T02:48:54;100600.13;;;32.09;31.26
50852;BME280;43953;45.508;-122.806;2022-08-03T02:49:27;100596.53;;;32.09;31.64
50852;BME280;43953;45.508;-122.806;2022-08-03T02:50:00;100591.69;;;32.06;31.48
50852;BME280;43953;45.508;-122.806;2022-08-03T02:50:33;100598.44;;;32.05;31.60
50852;BME280;43953;45.508;-122.806;2022-08-03T02:51:05;100599.59;;;32.04;31.60
50852;BME280;43953;45.508;-122.806;2022-08-03T02:51:38;100591.97;;;32.01;31.32
50852;BME280;43953;45.508;-122.806;2022-08-03T02:52:12;100595.91;;;32.00;31.66
50852;BME280;43953;45.508;-122.806;2022-08-03T02:52:45;100597.06;;;31.99;31.61
50852;BME280;43953;45.508;-122.806;2022-08-03T02:53:18;100593.81;;;31.97;31.24
50852;BME280;43953;45.508;-122.806;2022-08-03T02:53:53;100589.78;;;31.94;31.43
50852;BME280;43953;45.508;-122.806;2022-08-03T02:54:27;100592.94;;;31.92;31.66
50852;BME280;43953;45.508;-122.806;2022-08-03T02:55:01;100589.19;;;31.88;31.47
50852;BME280;43953;45.508;-122.806;2022-08-03T02:55:34;100596.75;;;31.88;31.33
50852;BME280;43953;45.508;-122.806;2022-08-03T02:56:07;100596.31;;;31.86;31.66
50852;BME280;43953;45.508;-122.806;2022-08-03T02:56:40;100600.25;;;31.85;31.71
50852;BME280;43953;45.508;-122.806;2022-08-03T02:57:14;100597.03;;;31.83;31.48
50852;BME280;43953;45.508;-122.806;2022-08-03T02:57:47;100593.78;;;31.81;31.30
50852;BME280;43953;45.508;-122.806;2022-08-03T02:58:22;100601.66;;;31.79;31.72
50852;BME280;43953;45.508;-122.806;2022-08-03T02:58:56;100602.03;;;31.77;31.61
50852;BME280;43953;45.508;-122.806;2022-08-03T02:59:30;100595.19;;;31.75;31.50
50852;BME280;43953;45.508;-122.806;2022-08-03T03:00:04;100599.13;;;31.73;31.42
50852;BME280;43953;45.508;-122.806;2022-08-03T03:00:36;100587.09;;;31.69;31.56
50852;BME280;43953;45.508;-122.806;2022-08-03T03:01:10;100600.56;;;31.67;31.39
50852;BME280;43953;45.508;-122.806;2022-08-03T03:01:43;100595.00;;;31.67;31.58
50852;BME280;43953;45.508;-122.806;2022-08-03T03:02:17;100592.91;;;31.64;31.34
50852;BME280;43953;45.508;-122.806;2022-08-03T03:02:50;100589.69;;;31.62;31.59
50852;BME280;43953;45.508;-122.806;2022-08-03T03:03:23;100596.41;;;31.61;31.90
50852;BME280;43953;45.508;-122.806;2022-08-03T03:03:56;100591.56;;;31.58;31.84
50852;BME280;43953;45.508;-122.806;2022-08-03T03:04:29;100587.88;;;31.54;31.86
50852;BME280;43953;45.508;-122.806;2022-08-03T03:05:01;100590.66;;;31.54;31.63
50852;BME280;43953;45.508;-122.806;2022-08-03T03:05:33;100583.44;;;31.53;31.69
50852;BME280;43953;45.508;-122.806;2022-08-03T03:06:07;100589.72;;;31.50;31.87